Terminal Aerodrome Forecast
Issued by NWS Grand Forks, ND

Home | Current Version | Previous Version | Graphics & Text | Print | Product List | Glossary On
Versions: 1 2 3 4 5 6 7 8 9 10 11 12 13 14 15 16 17 18
000
FTUS43 KFGF 202300
TAFGFK
TAF
KGFK 202324Z 2100/2124 17009KT P6SM BKN250
     FM210200 20013KT P6SM BKN100
     FM210600 29010KT P6SM SCT050
     FM211500 33019G26KT P6SM BKN030=

USA.gov is the U.S. government's official web portal to all federal, state and local government web resources and services.